createdAt,value
2022-11-17T00:01:10.637Z,18.38
2022-11-17T00:03:40.836Z,18.18
2022-11-17T00:06:10.600Z,18.00
2022-11-17T00:08:40.456Z,17.85
2022-11-17T00:11:11.275Z,17.76
2022-11-17T00:14:00.257Z,17.66
2022-11-17T00:16:30.679Z,17.59
2022-11-17T00:19:18.434Z,17.65
2022-11-17T00:21:48.861Z,17.72
2022-11-17T00:24:18.842Z,17.66
2022-11-17T00:27:03.832Z,17.66
2022-11-17T00:29:38.553Z,17.86
2022-11-17T00:32:37.627Z,18.00
2022-11-17T00:35:08.559Z,17.99
2022-11-17T00:38:00.930Z,17.87
2022-11-17T00:40:31.108Z,17.82
2022-11-17T00:43:00.949Z,17.83
2022-11-17T00:45:30.699Z,17.82
2022-11-17T00:48:01.349Z,17.75
2022-11-17T00:50:31.111Z,17.79
2022-11-17T00:53:00.956Z,17.81
2022-11-17T00:55:30.787Z,17.87
2022-11-17T00:58:00.584Z,17.97
2022-11-17T01:00:30.360Z,17.87
2022-11-17T01:03:00.297Z,17.86
2022-11-17T01:05:32.973Z,17.81
2022-11-17T01:08:03.789Z,17.75
2022-11-17T01:10:36.339Z,17.71
2022-11-17T01:13:06.537Z,17.66
2022-11-17T01:15:36.398Z,17.61
2022-11-17T01:18:06.360Z,17.58
2022-11-17T01:20:36.184Z,17.61
2022-11-17T01:23:06.519Z,17.66
2022-11-17T01:25:36.248Z,17.61
2022-11-17T01:28:06.221Z,17.58
2022-11-17T01:30:36.452Z,17.58
2022-11-17T01:33:06.280Z,17.62
2022-11-17T01:35:36.325Z,17.69
2022-11-17T01:38:06.115Z,17.65
2022-11-17T01:40:35.841Z,17.56
2022-11-17T01:43:10.559Z,17.48
2022-11-17T01:45:41.005Z,17.53
2022-11-17T01:48:15.144Z,17.59
2022-11-17T01:50:50.935Z,17.65
2022-11-17T01:53:21.353Z,17.63
2022-11-17T01:55:57.597Z,17.61
2022-11-17T01:58:37.268Z,17.53
2022-11-17T02:01:08.539Z,17.51
2022-11-17T02:03:41.421Z,17.51
2022-11-17T02:06:21.162Z,17.55
2022-11-17T02:08:54.823Z,17.51
2022-11-17T02:11:31.328Z,17.41
2022-11-17T02:14:03.438Z,17.21
2022-11-17T02:16:34.657Z,17.15
2022-11-17T02:19:07.134Z,17.10
2022-11-17T02:21:54.026Z,17.10
2022-11-17T02:24:46.577Z,17.06
2022-11-17T02:27:43.490Z,16.97
2022-11-17T02:30:21.212Z,16.87
2022-11-17T02:33:33.854Z,16.84
2022-11-17T02:36:13.444Z,16.83
2022-11-17T02:38:57.937Z,16.72
2022-11-17T02:41:51.875Z,16.59
2022-11-17T02:44:33.738Z,16.53
2022-11-17T02:47:18.472Z,16.33
2022-11-17T02:49:55.012Z,16.22
2022-11-17T02:52:25.683Z,16.14
2022-11-17T02:55:01.217Z,16.11
2022-11-17T02:57:39.894Z,16.02
2022-11-17T03:00:14.544Z,15.94
2022-11-17T03:03:09.334Z,15.95
2022-11-17T03:06:05.605Z,15.80
2022-11-17T03:09:05.366Z,15.77
2022-11-17T03:11:47.462Z,15.74
2022-11-17T03:14:22.157Z,15.71
2022-11-17T03:17:02.597Z,15.66
2022-11-17T03:19:49.690Z,15.63
2022-11-17T03:22:50.659Z,15.51
2022-11-17T03:25:24.714Z,15.51
2022-11-17T03:28:02.084Z,15.51
2022-11-17T03:30:37.287Z,15.43
2022-11-17T03:33:17.907Z,15.50
2022-11-17T03:35:58.606Z,15.49
2022-11-17T03:38:31.984Z,15.49
2022-11-17T03:41:05.088Z,15.47
2022-11-17T03:43:35.718Z,15.54
2022-11-17T03:46:14.818Z,15.60
2022-11-17T03:48:49.936Z,15.63
2022-11-17T03:51:29.792Z,15.64
2022-11-17T03:54:00.338Z,15.61
2022-11-17T03:56:29.973Z,15.54
2022-11-17T03:59:01.375Z,15.51
2022-11-17T04:01:34.315Z,15.50
2022-11-17T04:04:04.653Z,15.43
2022-11-17T04:06:34.407Z,15.30
2022-11-17T04:09:04.139Z,15.27
2022-11-17T04:11:52.396Z,15.25
2022-11-17T04:14:40.679Z,15.19
2022-11-17T04:17:10.793Z,15.12
2022-11-17T04:19:40.491Z,15.10
2022-11-17T04:22:10.303Z,15.05
2022-11-17T04:24:40.039Z,15.03
2022-11-17T04:27:29.545Z,14.96
2022-11-17T04:29:59.384Z,14.91
2022-11-17T04:32:29.067Z,14.84
2022-11-17T04:34:58.982Z,14.82
2022-11-17T04:37:28.661Z,14.81
2022-11-17T04:39:58.777Z,14.77
2022-11-17T04:42:28.391Z,14.71
2022-11-17T04:44:57.601Z,14.71
2022-11-17T04:47:27.573Z,14.71
2022-11-17T04:49:57.259Z,14.68
2022-11-17T04:52:29.759Z,14.61
2022-11-17T04:55:00.348Z,14.63
2022-11-17T04:57:29.545Z,14.60
2022-11-17T04:59:59.280Z,14.61
2022-11-17T05:02:29.925Z,14.65
2022-11-17T05:04:59.890Z,14.67
2022-11-17T05:07:29.708Z,14.58
2022-11-17T05:09:59.666Z,14.50
2022-11-17T05:12:47.590Z,14.44
2022-11-17T05:15:37.835Z,14.37
2022-11-17T05:18:08.097Z,14.31
2022-11-17T05:20:37.775Z,14.29
2022-11-17T05:23:25.912Z,14.26
2022-11-17T05:25:55.860Z,14.20
2022-11-17T05:28:25.063Z,14.19
2022-11-17T05:30:54.636Z,14.16
2022-11-17T05:33:24.871Z,14.17
2022-11-17T05:35:55.350Z,14.17
2022-11-17T05:38:25.025Z,14.05
2022-11-17T05:40:54.237Z,13.99
2022-11-17T05:43:24.228Z,14.05
2022-11-17T05:45:54.072Z,14.08
2022-11-17T05:48:23.990Z,13.99
2022-11-17T05:50:57.939Z,13.99
2022-11-17T05:53:28.456Z,13.96
2022-11-17T05:56:17.294Z,13.96
2022-11-17T05:58:52.480Z,13.96
2022-11-17T06:01:23.062Z,13.98
2022-11-17T06:03:57.760Z,13.93
2022-11-17T06:06:28.044Z,13.89
2022-11-17T06:08:58.133Z,13.85
2022-11-17T06:11:27.812Z,13.82
2022-11-17T06:13:57.262Z,13.75
2022-11-17T06:16:30.674Z,13.78
2022-11-17T06:19:09.408Z,13.79
2022-11-17T06:22:10.082Z,13.78
2022-11-17T06:24:30.155Z,13.72
2022-11-17T06:26:59.965Z,13.63
2022-11-17T06:29:31.796Z,13.66
2022-11-17T06:32:02.728Z,13.61
2022-11-17T06:34:34.038Z,13.63
2022-11-17T06:37:04.628Z,13.61
2022-11-17T06:39:34.356Z,13.57
2022-11-17T06:42:03.586Z,13.48
2022-11-17T06:44:33.503Z,13.45
2022-11-17T06:47:03.773Z,13.48
2022-11-17T06:49:33.481Z,13.47
2022-11-17T06:52:05.955Z,13.38
2022-11-17T06:54:36.802Z,13.30
2022-11-17T06:57:06.639Z,13.22
2022-11-17T06:59:36.601Z,13.24
2022-11-17T07:02:06.325Z,13.24
2022-11-17T07:04:35.600Z,13.20
2022-11-17T07:07:05.498Z,13.15
2022-11-17T07:09:35.230Z,13.14
2022-11-17T07:12:05.492Z,13.17
2022-11-17T07:14:35.423Z,13.17
2022-11-17T07:17:05.179Z,13.15
2022-11-17T07:19:34.459Z,13.11
2022-11-17T07:22:05.365Z,13.04
2022-11-17T07:24:35.376Z,13.04
2022-11-17T07:27:06.199Z,13.01
2022-11-17T07:29:36.289Z,12.99
2022-11-17T07:32:06.054Z,12.94
2022-11-17T07:34:35.699Z,12.94
2022-11-17T07:37:05.382Z,12.93
2022-11-17T07:39:35.595Z,12.93
2022-11-17T07:42:05.630Z,12.93
2022-11-17T07:44:35.723Z,12.89
2022-11-17T07:47:05.489Z,12.84
2022-11-17T07:49:34.736Z,12.83
2022-11-17T07:52:04.506Z,12.80
2022-11-17T07:54:34.476Z,12.80
2022-11-17T07:57:04.285Z,12.82
2022-11-17T07:59:34.933Z,12.80
2022-11-17T08:02:05.160Z,12.79
2022-11-17T08:04:34.903Z,12.76
2022-11-17T08:07:05.276Z,12.67
2022-11-17T08:09:34.977Z,12.62
2022-11-17T08:12:04.778Z,12.63
2022-11-17T08:14:34.090Z,12.62
2022-11-17T08:17:03.802Z,12.59
2022-11-17T08:19:33.822Z,12.59
2022-11-17T08:22:03.810Z,12.57
2022-11-17T08:24:34.546Z,12.55
2022-11-17T08:27:04.440Z,12.56
2022-11-17T08:29:38.677Z,12.59
2022-11-17T08:32:08.913Z,12.57
2022-11-17T08:34:38.660Z,12.62
2022-11-17T08:37:07.947Z,12.66
2022-11-17T08:39:37.783Z,12.76
2022-11-17T08:42:07.590Z,12.79
2022-11-17T08:44:37.373Z,12.75
2022-11-17T08:47:07.149Z,12.76
2022-11-17T08:49:37.224Z,12.86
2022-11-17T08:52:07.065Z,12.92
2022-11-17T08:54:36.861Z,12.97
2022-11-17T08:57:06.856Z,13.03
2022-11-17T08:59:36.713Z,13.13
2022-11-17T09:02:07.038Z,13.18
2022-11-17T09:04:36.880Z,13.21
2022-11-17T09:07:06.744Z,13.27
2022-11-17T09:09:36.627Z,13.37
2022-11-17T09:12:07.343Z,13.47
2022-11-17T09:14:37.403Z,13.58
2022-11-17T09:17:07.783Z,13.71
2022-11-17T09:19:37.535Z,13.83
2022-11-17T09:22:07.650Z,13.95
2022-11-17T09:24:37.304Z,14.08
2022-11-17T09:27:06.588Z,15.33
2022-11-17T09:29:36.217Z,16.72
2022-11-17T09:32:05.869Z,19.33
2022-11-17T09:34:35.492Z,21.28
2022-11-17T09:37:05.245Z,20.05
2022-11-17T09:39:34.940Z,18.61
2022-11-17T09:42:05.002Z,17.48
2022-11-17T09:44:43.527Z,16.86
2022-11-17T09:47:32.333Z,16.53
2022-11-17T09:50:07.798Z,16.73
2022-11-17T09:52:46.621Z,16.83
2022-11-17T09:55:31.165Z,16.69
2022-11-17T09:58:19.631Z,16.72
2022-11-17T10:00:53.198Z,16.74
2022-11-17T10:03:36.354Z,17.07
2022-11-17T10:06:30.064Z,17.51
2022-11-17T10:09:36.706Z,19.87
2022-11-17T10:12:20.998Z,23.97
2022-11-17T10:14:52.357Z,25.83
2022-11-17T10:17:22.735Z,27.02
2022-11-17T10:19:52.495Z,27.66
2022-11-17T10:22:38.063Z,26.52
2022-11-17T10:25:36.192Z,26.06
2022-11-17T10:28:08.993Z,25.25
2022-11-17T10:30:39.305Z,24.26
2022-11-17T10:33:09.025Z,23.78
2022-11-17T10:35:38.805Z,22.92
2022-11-17T10:38:24.063Z,22.36
2022-11-17T10:40:55.422Z,22.13
2022-11-17T10:43:30.441Z,21.90
2022-11-17T10:46:08.834Z,22.25
2022-11-17T10:48:41.261Z,23.94
2022-11-17T10:51:20.814Z,25.04
2022-11-17T10:54:22.074Z,25.59
2022-11-17T10:56:54.191Z,24.94
2022-11-17T10:59:31.394Z,25.28
2022-11-17T11:02:31.889Z,24.60
2022-11-17T11:05:10.570Z,24.38
2022-11-17T11:07:41.709Z,24.70
2022-11-17T11:10:38.940Z,24.77
2022-11-17T11:13:37.444Z,25.20
2022-11-17T11:16:07.916Z,25.44
2022-11-17T11:18:37.796Z,26.19
2022-11-17T11:21:45.426Z,26.57
2022-11-17T11:24:31.333Z,26.27
2022-11-17T11:27:31.512Z,26.54
2022-11-17T11:30:13.437Z,26.36
2022-11-17T11:32:55.393Z,26.50
2022-11-17T11:35:53.609Z,27.10
2022-11-17T11:38:32.392Z,27.18
2022-11-17T11:41:20.472Z,27.36
2022-11-17T11:43:55.838Z,27.08
2022-11-17T11:47:02.496Z,27.33
2022-11-17T11:49:53.482Z,27.61
2022-11-17T11:52:29.106Z,27.63
2022-11-17T11:55:04.142Z,28.19
2022-11-17T11:57:40.830Z,28.08
2022-11-17T12:00:18.587Z,28.14
2022-11-17T12:02:48.941Z,28.14
2022-11-17T12:05:37.221Z,28.38
2022-11-17T12:08:30.677Z,28.72
2022-11-17T12:11:31.186Z,28.38
2022-11-17T12:14:03.197Z,28.31
2022-11-17T12:16:41.232Z,29.30
2022-11-17T12:19:48.109Z,29.68
2022-11-17T12:22:23.961Z,29.76
2022-11-17T12:24:59.295Z,29.86
2022-11-17T12:27:38.276Z,30.08
2022-11-17T12:30:34.751Z,30.36
2022-11-17T12:33:09.693Z,29.85
2022-11-17T12:35:41.503Z,30.53
2022-11-17T12:38:21.117Z,30.81
2022-11-17T12:40:57.704Z,30.67
2022-11-17T12:43:29.211Z,30.41
2022-11-17T12:46:22.196Z,31.16
2022-11-17T12:49:18.900Z,30.68
2022-11-17T12:52:07.792Z,31.49
2022-11-17T12:54:55.504Z,31.80
2022-11-17T12:57:35.732Z,31.26
2022-11-17T13:00:21.461Z,30.94
2022-11-17T13:03:14.101Z,31.72
2022-11-17T13:05:44.230Z,31.21
2022-11-17T13:08:16.816Z,31.30
2022-11-17T13:10:46.771Z,31.72
2022-11-17T13:13:25.729Z,32.13
2022-11-17T13:16:00.239Z,31.91
2022-11-17T13:18:39.146Z,31.76
2022-11-17T13:21:32.871Z,32.34
2022-11-17T13:24:02.872Z,31.76
2022-11-17T13:26:42.592Z,31.46
2022-11-17T13:29:19.877Z,31.84
2022-11-17T13:31:50.077Z,31.51
2022-11-17T13:34:22.313Z,31.36
2022-11-17T13:37:00.741Z,31.02
2022-11-17T13:39:30.912Z,31.14
2022-11-17T13:42:04.158Z,31.46
2022-11-17T13:44:34.814Z,31.21
2022-11-17T13:47:28.767Z,31.94
2022-11-17T13:50:27.889Z,31.88
2022-11-17T13:53:00.349Z,32.25
2022-11-17T13:55:30.741Z,32.41
2022-11-17T13:58:09.374Z,31.69
2022-11-17T14:00:39.501Z,31.83
2022-11-17T14:03:41.688Z,31.74
2022-11-17T14:06:14.359Z,31.29
2022-11-17T14:08:45.758Z,31.23
2022-11-17T14:11:22.476Z,31.78
2022-11-17T14:13:59.910Z,32.27
2022-11-17T14:16:40.129Z,32.31
2022-11-17T14:19:18.340Z,32.27
2022-11-17T14:22:09.636Z,32.42
2022-11-17T14:24:40.171Z,32.00
2022-11-17T14:27:28.521Z,31.90
2022-11-17T14:29:58.741Z,31.66
2022-11-17T14:32:28.414Z,31.77
2022-11-17T14:34:58.996Z,32.11
2022-11-17T14:37:31.380Z,32.76
2022-11-17T14:40:01.971Z,32.73
2022-11-17T14:42:35.924Z,33.24
2022-11-17T14:45:06.852Z,32.87
2022-11-17T14:47:37.215Z,32.76
2022-11-17T14:50:07.757Z,32.76
2022-11-17T14:52:40.471Z,32.86
2022-11-17T14:55:11.960Z,32.68
2022-11-17T14:57:43.619Z,32.82
2022-11-17T15:00:19.945Z,33.53
2022-11-17T15:02:50.703Z,33.64
2022-11-17T15:05:20.519Z,33.14
2022-11-17T15:07:50.411Z,33.12
2022-11-17T15:10:20.509Z,33.51
2022-11-17T15:12:50.205Z,33.81
2022-11-17T15:15:20.028Z,33.67
2022-11-17T15:17:51.639Z,33.60
2022-11-17T15:20:21.570Z,33.68
2022-11-17T15:22:51.849Z,33.72
2022-11-17T15:25:21.825Z,33.85
2022-11-17T15:27:51.541Z,33.92
2022-11-17T15:30:21.293Z,33.95
2022-11-17T15:32:51.003Z,34.29
2022-11-17T15:35:21.677Z,33.68
2022-11-17T15:37:52.292Z,33.81
2022-11-17T15:40:22.287Z,33.85
2022-11-17T15:42:54.959Z,33.78
2022-11-17T15:45:25.167Z,33.88
2022-11-17T15:47:54.913Z,34.57
2022-11-17T15:50:24.722Z,34.39
2022-11-17T15:53:03.968Z,34.46
2022-11-17T15:55:37.413Z,34.23
2022-11-17T15:58:07.498Z,34.42
2022-11-17T16:00:37.336Z,34.49
2022-11-17T16:03:07.827Z,35.18
2022-11-17T16:05:37.644Z,34.97
2022-11-17T16:08:07.612Z,34.67
2022-11-17T16:10:38.084Z,34.46
2022-11-17T16:13:10.535Z,34.45
2022-11-17T16:15:40.550Z,34.31
2022-11-17T16:18:13.482Z,34.29
2022-11-17T16:20:49.562Z,34.40
2022-11-17T16:23:19.956Z,34.83
2022-11-17T16:25:50.683Z,34.74
2022-11-17T16:28:20.416Z,34.98
2022-11-17T16:30:50.478Z,34.61
2022-11-17T16:33:20.279Z,34.23
2022-11-17T16:35:50.042Z,34.32
2022-11-17T16:38:19.993Z,34.18
2022-11-17T16:40:49.921Z,34.25
2022-11-17T16:43:19.663Z,33.98
2022-11-17T16:45:49.651Z,33.57
2022-11-17T16:48:19.443Z,33.64
2022-11-17T16:50:49.217Z,33.74
2022-11-17T16:53:18.985Z,34.04
2022-11-17T16:55:48.679Z,33.92
2022-11-17T16:58:18.441Z,34.50
2022-11-17T17:00:48.136Z,34.23
2022-11-17T17:03:18.693Z,34.02
2022-11-17T17:05:48.495Z,33.58
2022-11-17T17:08:18.538Z,33.71
2022-11-17T17:10:49.917Z,33.71
2022-11-17T17:13:19.986Z,33.61
2022-11-17T17:15:49.885Z,34.13
2022-11-17T17:18:20.925Z,34.45
2022-11-17T17:20:55.239Z,34.39
2022-11-17T17:23:25.997Z,34.18
2022-11-17T17:26:10.873Z,33.91
2022-11-17T17:28:45.712Z,34.06
2022-11-17T17:31:21.293Z,34.05
2022-11-17T17:33:56.737Z,34.23
2022-11-17T17:36:29.590Z,34.18
2022-11-17T17:39:05.461Z,33.72
2022-11-17T17:41:41.548Z,33.98
2022-11-17T17:44:15.452Z,33.55
2022-11-17T17:46:46.169Z,33.27
2022-11-17T17:49:22.854Z,32.69
2022-11-17T17:51:53.124Z,32.04
2022-11-17T17:54:25.132Z,31.78
2022-11-17T17:56:55.177Z,32.01
2022-11-17T17:59:24.985Z,32.14
2022-11-17T18:01:54.745Z,32.14
2022-11-17T18:04:24.524Z,32.83
2022-11-17T18:06:54.286Z,33.23
2022-11-17T18:09:24.042Z,32.71
2022-11-17T18:11:53.780Z,32.23
2022-11-17T18:14:25.327Z,31.87
2022-11-17T18:16:55.604Z,31.62
2022-11-17T18:19:31.401Z,32.18
2022-11-17T18:22:03.748Z,32.35
2022-11-17T18:24:33.533Z,31.78
2022-11-17T18:27:03.799Z,31.33
2022-11-17T18:29:33.615Z,31.01
2022-11-17T18:32:04.174Z,30.98
2022-11-17T18:34:34.174Z,30.95
2022-11-17T18:37:03.909Z,30.70
2022-11-17T18:39:34.602Z,30.87
2022-11-17T18:42:04.598Z,30.96
2022-11-17T18:44:34.338Z,30.60
2022-11-17T18:47:04.212Z,30.65
2022-11-17T18:49:35.614Z,30.05
2022-11-17T18:52:05.845Z,29.92
2022-11-17T18:54:36.421Z,30.71
2022-11-17T18:57:06.141Z,31.15
2022-11-17T18:59:36.106Z,30.95
2022-11-17T19:02:06.110Z,30.80
2022-11-17T19:04:35.826Z,31.14
2022-11-17T19:07:05.638Z,30.61
2022-11-17T19:09:35.533Z,30.29
2022-11-17T19:12:05.758Z,30.63
2022-11-17T19:14:35.593Z,29.96
2022-11-17T19:17:05.722Z,29.10
2022-11-17T19:19:35.471Z,28.73
2022-11-17T19:22:05.647Z,28.41
2022-11-17T19:24:35.457Z,28.28
2022-11-17T19:27:05.251Z,28.05
2022-11-17T19:29:34.950Z,27.80
2022-11-17T19:32:04.704Z,27.39
2022-11-17T19:34:34.476Z,27.30
2022-11-17T19:37:04.246Z,27.05
2022-11-17T19:39:34.010Z,26.82
2022-11-17T19:42:03.725Z,26.68
2022-11-17T19:44:34.462Z,26.52
2022-11-17T19:47:04.161Z,26.44
2022-11-17T19:49:34.241Z,26.39
2022-11-17T19:52:04.249Z,26.41
2022-11-17T19:54:34.224Z,26.39
2022-11-17T19:57:04.271Z,26.30
2022-11-17T19:59:34.284Z,26.61
2022-11-17T20:02:04.292Z,26.68
2022-11-17T20:04:33.986Z,26.52
2022-11-17T20:07:03.725Z,26.44
2022-11-17T20:09:33.511Z,26.58
2022-11-17T20:12:04.733Z,26.47
2022-11-17T20:14:34.770Z,26.22
2022-11-17T20:17:04.443Z,26.22
2022-11-17T20:19:35.008Z,26.27
2022-11-17T20:22:05.016Z,26.30
2022-11-17T20:24:35.129Z,26.26
2022-11-17T20:27:05.257Z,26.17
2022-11-17T20:29:35.141Z,26.04
2022-11-17T20:32:04.847Z,26.03
2022-11-17T20:34:34.562Z,25.86
2022-11-17T20:37:04.265Z,25.61
2022-11-17T20:39:34.653Z,25.45
2022-11-17T20:42:04.425Z,25.31
2022-11-17T20:44:34.124Z,25.07
2022-11-17T20:47:04.189Z,24.84
2022-11-17T20:49:33.973Z,24.70
2022-11-17T20:52:04.619Z,24.62
2022-11-17T20:54:38.065Z,24.55
2022-11-17T20:57:07.949Z,24.45
2022-11-17T20:59:37.888Z,24.33
2022-11-17T21:02:08.396Z,24.17
2022-11-17T21:04:38.108Z,24.00
2022-11-17T21:07:08.068Z,23.81
2022-11-17T21:09:37.872Z,23.63
2022-11-17T21:12:07.876Z,23.54
2022-11-17T21:14:37.588Z,23.43
2022-11-17T21:17:27.523Z,23.34
2022-11-17T21:19:59.286Z,23.29
2022-11-17T21:22:30.259Z,23.22
2022-11-17T21:25:00.278Z,23.12
2022-11-17T21:27:30.078Z,23.02
2022-11-17T21:29:59.822Z,22.89
2022-11-17T21:32:29.566Z,22.79
2022-11-17T21:35:00.535Z,22.54
2022-11-17T21:37:30.266Z,22.30
2022-11-17T21:40:00.313Z,22.04
2022-11-17T21:42:30.084Z,21.76
2022-11-17T21:44:59.781Z,21.52
2022-11-17T21:47:29.466Z,21.31
2022-11-17T21:49:59.192Z,21.14
2022-11-17T21:52:29.264Z,20.83
2022-11-17T21:55:00.145Z,20.69
2022-11-17T21:57:31.032Z,20.60
2022-11-17T22:00:01.308Z,20.47
2022-11-17T22:02:33.864Z,20.29
2022-11-17T22:05:03.949Z,20.15
2022-11-17T22:07:33.680Z,20.24
2022-11-17T22:10:03.761Z,20.35
2022-11-17T22:12:34.900Z,20.11
2022-11-17T22:15:10.171Z,19.81
2022-11-17T22:17:41.492Z,19.63
2022-11-17T22:20:11.678Z,19.57
2022-11-17T22:22:41.527Z,19.51
2022-11-17T22:25:37.642Z,19.37
2022-11-17T22:28:01.218Z,19.26
2022-11-17T22:30:31.090Z,19.31
2022-11-17T22:33:01.321Z,19.31
2022-11-17T22:35:35.740Z,19.46
2022-11-17T22:38:06.064Z,19.58
2022-11-17T22:40:35.848Z,19.64
2022-11-17T22:43:09.069Z,19.63
2022-11-17T22:45:42.062Z,19.36
2022-11-17T22:48:14.698Z,19.20
2022-11-17T22:50:45.336Z,19.12
2022-11-17T22:53:15.047Z,19.09
2022-11-17T22:55:44.801Z,18.89
2022-11-17T22:58:17.045Z,18.91
2022-11-17T23:00:47.888Z,18.82
2022-11-17T23:03:18.254Z,18.91
2022-11-17T23:05:48.160Z,19.26
2022-11-17T23:08:18.226Z,19.22
2022-11-17T23:10:48.176Z,19.10
2022-11-17T23:13:17.997Z,19.10
2022-11-17T23:15:47.735Z,18.88
2022-11-17T23:18:17.911Z,18.68
2022-11-17T23:20:51.559Z,18.50
2022-11-17T23:23:21.822Z,18.34
2022-11-17T23:25:51.567Z,18.20
2022-11-17T23:28:21.330Z,18.04
2022-11-17T23:30:51.048Z,17.89
2022-11-17T23:33:20.920Z,17.75
2022-11-17T23:35:50.821Z,17.62
2022-11-17T23:38:20.523Z,17.51
2022-11-17T23:40:51.332Z,17.38
2022-11-17T23:43:21.232Z,17.30
2022-11-17T23:45:50.980Z,17.23
2022-11-17T23:48:20.794Z,17.20
2022-11-17T23:50:51.148Z,17.11
2022-11-17T23:53:20.873Z,17.10
2022-11-17T23:55:58.045Z,17.13
2022-11-17T23:58:28.456Z,17.07
